Endicott, Washington
Current Conditions -  °F | °C
As of 10:53 PM on Friday 28 Nov 2014 (Local Time) from KPUW Reporting Station
Light Rain Light Rain  
Wind Chill: 39°   Ceiling: 4400
Heat Index: 47°   Visibility: 10mi
Dew Point: 41°   Wind: 21mph
Humidity: 80%   Direction: 240°WSW
Pressure: 29.36"   Gusts: 35mph
Location:  46.93°N, 117.68°W
Report Text: KPUW 290653Z AUTO 24018G30KT 10SM -RA FEW030 OVC044 08/05 A2936 RMK AO2 PK WND 25033/0634 SLP942 P0003 T00830050
Loading
Personal Weather Stations






























Interactive Weather Map New forecast layout! Learn more

10-Day Weather Forecast

Advertisements
Track Severe Weather on mobile